sensor_id;sensor_type;location;lat;lon;timestamp;temperature;humidity
67942;SHT31;54731;42.600;23.476;2023-02-01T00:01:31;-0.40;78.73
67942;SHT31;54731;42.600;23.476;2023-02-01T00:03:56;-0.37;78.52
67942;SHT31;54731;42.600;23.476;2023-02-01T00:06:22;-0.41;78.57
67942;SHT31;54731;42.600;23.476;2023-02-01T00:08:47;-0.40;78.53
67942;SHT31;54731;42.600;23.476;2023-02-01T00:11:13;-0.41;78.67
67942;SHT31;54731;42.600;23.476;2023-02-01T00:13:40;-0.37;78.26
67942;SHT31;54731;42.600;23.476;2023-02-01T00:16:17;-0.48;78.58
67942;SHT31;54731;42.600;23.476;2023-02-01T00:18:44;-0.48;78.84
67942;SHT31;54731;42.600;23.476;2023-02-01T00:21:13;-0.50;78.91
67942;SHT31;54731;42.600;23.476;2023-02-01T00:23:39;-0.47;78.73
67942;SHT31;54731;42.600;23.476;2023-02-01T00:26:07;-0.47;78.81
67942;SHT31;54731;42.600;23.476;2023-02-01T00:28:32;-0.45;78.97
67942;SHT31;54731;42.600;23.476;2023-02-01T00:31:02;-0.42;78.50
67942;SHT31;54731;42.600;23.476;2023-02-01T00:33:28;-0.50;79.02
67942;SHT31;54731;42.600;23.476;2023-02-01T00:35:58;-0.44;78.86
67942;SHT31;54731;42.600;23.476;2023-02-01T00:38:24;-0.53;78.80
67942;SHT31;54731;42.600;23.476;2023-02-01T00:40:49;-0.57;78.67
67942;SHT31;54731;42.600;23.476;2023-02-01T00:43:15;-0.56;78.64
67942;SHT31;54731;42.600;23.476;2023-02-01T00:45:40;-0.50;78.44
67942;SHT31;54731;42.600;23.476;2023-02-01T00:48:05;-0.54;78.32
67942;SHT31;54731;42.600;23.476;2023-02-01T00:50:31;-0.48;77.92
67942;SHT31;54731;42.600;23.476;2023-02-01T00:52:56;-0.50;77.81
67942;SHT31;54731;42.600;23.476;2023-02-01T00:55:21;-0.48;78.07
67942;SHT31;54731;42.600;23.476;2023-02-01T00:57:47;-0.50;77.61
67942;SHT31;54731;42.600;23.476;2023-02-01T01:00:12;-0.50;77.25
67942;SHT31;54731;42.600;23.476;2023-02-01T01:02:37;-0.48;76.79
67942;SHT31;54731;42.600;23.476;2023-02-01T01:05:03;-0.50;76.83
67942;SHT31;54731;42.600;23.476;2023-02-01T01:07:28;-0.51;76.85
67942;SHT31;54731;42.600;23.476;2023-02-01T01:09:54;-0.45;75.79
67942;SHT31;54731;42.600;23.476;2023-02-01T01:12:19;-0.47;75.40
67942;SHT31;54731;42.600;23.476;2023-02-01T01:14:44;-0.41;75.70
67942;SHT31;54731;42.600;23.476;2023-02-01T01:17:10;-0.47;74.38
67942;SHT31;54731;42.600;23.476;2023-02-01T01:19:35;-0.42;74.21
67942;SHT31;54731;42.600;23.476;2023-02-01T01:22:00;-0.44;74.52
67942;SHT31;54731;42.600;23.476;2023-02-01T01:24:26;-0.44;74.11
67942;SHT31;54731;42.600;23.476;2023-02-01T01:26:51;-0.41;74.06
67942;SHT31;54731;42.600;23.476;2023-02-01T01:29:16;-0.47;74.24
67942;SHT31;54731;42.600;23.476;2023-02-01T01:31:42;-0.53;73.77
67942;SHT31;54731;42.600;23.476;2023-02-01T01:34:08;-0.47;72.96
67942;SHT31;54731;42.600;23.476;2023-02-01T01:36:33;-0.47;72.83
67942;SHT31;54731;42.600;23.476;2023-02-01T01:38:59;-0.51;73.06
67942;SHT31;54731;42.600;23.476;2023-02-01T01:41:28;-0.56;72.28
67942;SHT31;54731;42.600;23.476;2023-02-01T01:43:56;-0.51;72.62
67942;SHT31;54731;42.600;23.476;2023-02-01T01:46:36;-0.45;72.61
67942;SHT31;54731;42.600;23.476;2023-02-01T01:49:12;-0.50;72.41
67942;SHT31;54731;42.600;23.476;2023-02-01T01:51:41;-0.45;72.18
67942;SHT31;54731;42.600;23.476;2023-02-01T01:54:50;-0.51;72.27
67942;SHT31;54731;42.600;23.476;2023-02-01T01:57:02;-0.47;71.83
67942;SHT31;54731;42.600;23.476;2023-02-01T01:59:31;-0.44;71.43
67942;SHT31;54731;42.600;23.476;2023-02-01T02:01:57;-0.48;71.92
67942;SHT31;54731;42.600;23.476;2023-02-01T02:04:23;-0.54;71.76
67942;SHT31;54731;42.600;23.476;2023-02-01T02:06:57;-0.64;71.72
67942;SHT31;54731;42.600;23.476;2023-02-01T02:09:25;-0.62;72.09
67942;SHT31;54731;42.600;23.476;2023-02-01T02:11:50;-0.61;71.88
67942;SHT31;54731;42.600;23.476;2023-02-01T02:14:17;-0.61;72.31
67942;SHT31;54731;42.600;23.476;2023-02-01T02:33:58;-0.72;71.66
67942;SHT31;54731;42.600;23.476;2023-02-01T02:47:15;-0.99;72.04
67942;SHT31;54731;42.600;23.476;2023-02-01T02:49:50;-0.99;71.98
67942;SHT31;54731;42.600;23.476;2023-02-01T02:52:17;-0.96;71.93
67942;SHT31;54731;42.600;23.476;2023-02-01T02:54:47;-1.01;72.09
67942;SHT31;54731;42.600;23.476;2023-02-01T02:57:19;-1.02;72.26
67942;SHT31;54731;42.600;23.476;2023-02-01T02:59:46;-0.95;72.23
67942;SHT31;54731;42.600;23.476;2023-02-01T03:02:13;-0.99;72.26
67942;SHT31;54731;42.600;23.476;2023-02-01T03:04:39;-1.02;72.76
67942;SHT31;54731;42.600;23.476;2023-02-01T03:10:13;-1.05;72.99
67942;SHT31;54731;42.600;23.476;2023-02-01T03:12:43;-1.06;73.10
67942;SHT31;54731;42.600;23.476;2023-02-01T03:15:11;-1.01;73.02
67942;SHT31;54731;42.600;23.476;2023-02-01T03:17:39;-0.93;72.82
67942;SHT31;54731;42.600;23.476;2023-02-01T03:20:08;-0.91;72.25
67942;SHT31;54731;42.600;23.476;2023-02-01T03:22:35;-0.89;71.93
67942;SHT31;54731;42.600;23.476;2023-02-01T03:25:14;-0.95;71.88
67942;SHT31;54731;42.600;23.476;2023-02-01T03:27:42;-0.87;71.78
67942;SHT31;54731;42.600;23.476;2023-02-01T03:30:31;-0.92;71.60
67942;SHT31;54731;42.600;23.476;2023-02-01T03:32:57;-0.92;71.25
67942;SHT31;54731;42.600;23.476;2023-02-01T03:40:39;-0.85;71.05
67942;SHT31;54731;42.600;23.476;2023-02-01T03:43:09;-0.84;70.97
67942;SHT31;54731;42.600;23.476;2023-02-01T03:45:41;-0.81;71.09
67942;SHT31;54731;42.600;23.476;2023-02-01T03:48:09;-0.77;71.09
67942;SHT31;54731;42.600;23.476;2023-02-01T03:50:38;-0.77;70.69
67942;SHT31;54731;42.600;23.476;2023-02-01T03:53:07;-0.74;70.99
67942;SHT31;54731;42.600;23.476;2023-02-01T03:55:36;-0.78;71.06
67942;SHT31;54731;42.600;23.476;2023-02-01T03:58:08;-0.78;71.07
67942;SHT31;54731;42.600;23.476;2023-02-01T04:00:35;-0.74;71.06
67942;SHT31;54731;42.600;23.476;2023-02-01T04:03:02;-0.72;71.56
67942;SHT31;54731;42.600;23.476;2023-02-01T04:05:27;-0.72;71.53
67942;SHT31;54731;42.600;23.476;2023-02-01T04:07:52;-0.65;71.38
67942;SHT31;54731;42.600;23.476;2023-02-01T04:10:18;-0.68;71.28
67942;SHT31;54731;42.600;23.476;2023-02-01T04:12:43;-0.70;71.52
67942;SHT31;54731;42.600;23.476;2023-02-01T04:15:09;-0.70;71.67
67942;SHT31;54731;42.600;23.476;2023-02-01T04:17:34;-0.68;71.60
67942;SHT31;54731;42.600;23.476;2023-02-01T04:19:59;-0.72;71.53
67942;SHT31;54731;42.600;23.476;2023-02-01T04:22:25;-0.71;71.60
67942;SHT31;54731;42.600;23.476;2023-02-01T04:24:50;-0.72;71.62
67942;SHT31;54731;42.600;23.476;2023-02-01T04:27:15;-0.70;71.83
67942;SHT31;54731;42.600;23.476;2023-02-01T04:29:41;-0.65;71.60
67942;SHT31;54731;42.600;23.476;2023-02-01T04:32:06;-0.65;71.55
67942;SHT31;54731;42.600;23.476;2023-02-01T04:34:32;-0.65;71.45
67942;SHT31;54731;42.600;23.476;2023-02-01T04:36:57;-0.61;71.70
67942;SHT31;54731;42.600;23.476;2023-02-01T04:39:22;-0.60;71.88
67942;SHT31;54731;42.600;23.476;2023-02-01T04:41:48;-0.54;71.89
67942;SHT31;54731;42.600;23.476;2023-02-01T04:44:15;-0.53;72.54
67942;SHT31;54731;42.600;23.476;2023-02-01T04:46:40;-0.56;72.48
67942;SHT31;54731;42.600;23.476;2023-02-01T04:49:06;-0.57;72.81
67942;SHT31;54731;42.600;23.476;2023-02-01T04:51:31;-0.54;72.78
67942;SHT31;54731;42.600;23.476;2023-02-01T04:53:56;-0.57;73.05
67942;SHT31;54731;42.600;23.476;2023-02-01T04:56:21;-0.56;73.07
67942;SHT31;54731;42.600;23.476;2023-02-01T04:58:47;-0.65;73.79
67942;SHT31;54731;42.600;23.476;2023-02-01T05:01:12;-0.56;73.71
67942;SHT31;54731;42.600;23.476;2023-02-01T05:03:37;-0.56;73.50
67942;SHT31;54731;42.600;23.476;2023-02-01T05:06:03;-0.53;73.66
67942;SHT31;54731;42.600;23.476;2023-02-01T05:08:29;-0.53;73.72
67942;SHT31;54731;42.600;23.476;2023-02-01T05:10:54;-0.57;74.06
67942;SHT31;54731;42.600;23.476;2023-02-01T05:13:19;-0.51;74.00
67942;SHT31;54731;42.600;23.476;2023-02-01T05:15:45;-0.47;74.14
67942;SHT31;54731;42.600;23.476;2023-02-01T05:18:10;-0.47;74.44
67942;SHT31;54731;42.600;23.476;2023-02-01T05:20:35;-0.45;74.69
67942;SHT31;54731;42.600;23.476;2023-02-01T05:23:01;-0.44;75.12
67942;SHT31;54731;42.600;23.476;2023-02-01T05:25:26;-0.42;75.08
67942;SHT31;54731;42.600;23.476;2023-02-01T05:27:53;-0.44;75.38
67942;SHT31;54731;42.600;23.476;2023-02-01T05:30:18;-0.44;75.37
67942;SHT31;54731;42.600;23.476;2023-02-01T05:32:43;-0.38;75.27
67942;SHT31;54731;42.600;23.476;2023-02-01T05:35:09;-0.44;75.13
67942;SHT31;54731;42.600;23.476;2023-02-01T05:37:34;-0.41;75.21
67942;SHT31;54731;42.600;23.476;2023-02-01T05:39:59;-0.47;75.27
67942;SHT31;54731;42.600;23.476;2023-02-01T05:42:25;-0.34;75.25
67942;SHT31;54731;42.600;23.476;2023-02-01T05:44:50;-0.34;75.19
67942;SHT31;54731;42.600;23.476;2023-02-01T05:47:15;-0.36;75.25
67942;SHT31;54731;42.600;23.476;2023-02-01T05:49:41;-0.34;75.26
67942;SHT31;54731;42.600;23.476;2023-02-01T05:52:06;-0.34;75.25
67942;SHT31;54731;42.600;23.476;2023-02-01T05:54:31;-0.34;75.20
67942;SHT31;54731;42.600;23.476;2023-02-01T05:56:56;-0.30;75.17
67942;SHT31;54731;42.600;23.476;2023-02-01T05:59:22;-0.26;75.00
67942;SHT31;54731;42.600;23.476;2023-02-01T06:01:47;-0.20;74.95
67942;SHT31;54731;42.600;23.476;2023-02-01T06:04:12;-0.21;74.91
67942;SHT31;54731;42.600;23.476;2023-02-01T06:06:38;-0.21;74.90
67942;SHT31;54731;42.600;23.476;2023-02-01T06:09:03;-0.17;74.80
67942;SHT31;54731;42.600;23.476;2023-02-01T06:11:29;-0.17;74.48
67942;SHT31;54731;42.600;23.476;2023-02-01T06:13:54;-0.14;74.48
67942;SHT31;54731;42.600;23.476;2023-02-01T06:16:19;-0.03;73.76
67942;SHT31;54731;42.600;23.476;2023-02-01T06:18:45;0.04;73.39
67942;SHT31;54731;42.600;23.476;2023-02-01T06:21:10;0.04;73.33
67942;SHT31;54731;42.600;23.476;2023-02-01T06:23:35;0.01;73.37
67942;SHT31;54731;42.600;23.476;2023-02-01T06:26:05;0.07;72.86
67942;SHT31;54731;42.600;23.476;2023-02-01T06:28:31;0.13;72.86
67942;SHT31;54731;42.600;23.476;2023-02-01T06:30:57;0.18;72.13
67942;SHT31;54731;42.600;23.476;2023-02-01T06:33:22;0.21;72.41
67942;SHT31;54731;42.600;23.476;2023-02-01T06:35:47;0.22;72.13
67942;SHT31;54731;42.600;23.476;2023-02-01T06:38:13;0.27;71.63
67942;SHT31;54731;42.600;23.476;2023-02-01T06:40:39;0.27;71.97
67942;SHT31;54731;42.600;23.476;2023-02-01T06:43:05;0.32;71.31
67942;SHT31;54731;42.600;23.476;2023-02-01T06:45:30;0.38;71.37
67942;SHT31;54731;42.600;23.476;2023-02-01T06:47:55;0.41;71.28
67942;SHT31;54731;42.600;23.476;2023-02-01T06:50:21;0.37;71.43
67942;SHT31;54731;42.600;23.476;2023-02-01T06:52:46;0.41;71.10
67942;SHT31;54731;42.600;23.476;2023-02-01T06:55:11;0.48;70.49
67942;SHT31;54731;42.600;23.476;2023-02-01T06:57:37;0.47;70.68
67942;SHT31;54731;42.600;23.476;2023-02-01T07:00:05;0.58;70.70
67942;SHT31;54731;42.600;23.476;2023-02-01T07:02:31;0.55;70.28
67942;SHT31;54731;42.600;23.476;2023-02-01T07:04:56;0.55;70.19
67942;SHT31;54731;42.600;23.476;2023-02-01T07:07:21;0.54;70.06
67942;SHT31;54731;42.600;23.476;2023-02-01T07:09:47;0.55;70.33
67942;SHT31;54731;42.600;23.476;2023-02-01T07:12:12;0.54;70.69
67942;SHT31;54731;42.600;23.476;2023-02-01T07:14:37;0.59;70.19
67942;SHT31;54731;42.600;23.476;2023-02-01T07:17:03;0.66;70.07
67942;SHT31;54731;42.600;23.476;2023-02-01T07:19:28;0.64;70.13
67942;SHT31;54731;42.600;23.476;2023-02-01T07:21:53;0.70;69.63
67942;SHT31;54731;42.600;23.476;2023-02-01T07:24:18;0.78;69.37
67942;SHT31;54731;42.600;23.476;2023-02-01T07:26:44;0.73;69.35
67942;SHT31;54731;42.600;23.476;2023-02-01T07:29:09;0.68;69.80
67942;SHT31;54731;42.600;23.476;2023-02-01T07:31:34;0.72;69.06
67942;SHT31;54731;42.600;23.476;2023-02-01T07:34:00;0.73;69.34
67942;SHT31;54731;42.600;23.476;2023-02-01T07:36:25;0.79;68.98
67942;SHT31;54731;42.600;23.476;2023-02-01T07:38:50;0.82;69.04
67942;SHT31;54731;42.600;23.476;2023-02-01T07:41:16;0.88;68.91
67942;SHT31;54731;42.600;23.476;2023-02-01T07:43:41;0.86;68.06
67942;SHT31;54731;42.600;23.476;2023-02-01T07:46:07;0.92;68.46
67942;SHT31;54731;42.600;23.476;2023-02-01T07:48:33;0.99;68.15
67942;SHT31;54731;42.600;23.476;2023-02-01T07:53:25;1.02;68.09
67942;SHT31;54731;42.600;23.476;2023-02-01T07:55:50;1.04;67.55
67942;SHT31;54731;42.600;23.476;2023-02-01T07:58:15;1.06;67.69
67942;SHT31;54731;42.600;23.476;2023-02-01T08:00:41;1.03;67.58
67942;SHT31;54731;42.600;23.476;2023-02-01T08:03:06;1.04;67.52
67942;SHT31;54731;42.600;23.476;2023-02-01T08:05:31;1.09;68.02
67942;SHT31;54731;42.600;23.476;2023-02-01T08:07:57;1.06;67.74
67942;SHT31;54731;42.600;23.476;2023-02-01T08:10:22;1.10;67.71
67942;SHT31;54731;42.600;23.476;2023-02-01T08:12:47;1.15;67.67
67942;SHT31;54731;42.600;23.476;2023-02-01T08:15:16;1.16;67.89
67942;SHT31;54731;42.600;23.476;2023-02-01T08:17:50;1.16;67.11
67942;SHT31;54731;42.600;23.476;2023-02-01T08:20:19;1.10;67.34
67942;SHT31;54731;42.600;23.476;2023-02-01T08:22:44;1.12;67.25
67942;SHT31;54731;42.600;23.476;2023-02-01T08:25:10;1.13;66.96
67942;SHT31;54731;42.600;23.476;2023-02-01T08:27:36;1.15;67.49
67942;SHT31;54731;42.600;23.476;2023-02-01T08:30:03;1.20;67.82
67942;SHT31;54731;42.600;23.476;2023-02-01T08:32:29;1.26;66.98
67942;SHT31;54731;42.600;23.476;2023-02-01T08:34:54;1.36;66.58
67942;SHT31;54731;42.600;23.476;2023-02-01T08:37:19;1.37;66.08
67942;SHT31;54731;42.600;23.476;2023-02-01T08:39:45;1.30;66.44
67942;SHT31;54731;42.600;23.476;2023-02-01T08:42:11;1.33;66.79
67942;SHT31;54731;42.600;23.476;2023-02-01T08:44:36;1.43;66.67
67942;SHT31;54731;42.600;23.476;2023-02-01T08:47:02;1.44;66.41
67942;SHT31;54731;42.600;23.476;2023-02-01T08:49:28;1.47;65.50
67942;SHT31;54731;42.600;23.476;2023-02-01T08:51:53;1.50;65.69
67942;SHT31;54731;42.600;23.476;2023-02-01T08:54:19;1.46;65.21
67942;SHT31;54731;42.600;23.476;2023-02-01T08:56:45;1.51;65.60
67942;SHT31;54731;42.600;23.476;2023-02-01T08:59:10;1.57;65.80
67942;SHT31;54731;42.600;23.476;2023-02-01T09:01:35;1.57;65.59
67942;SHT31;54731;42.600;23.476;2023-02-01T09:04:01;1.64;64.67
67942;SHT31;54731;42.600;23.476;2023-02-01T09:06:26;1.61;64.60
67942;SHT31;54731;42.600;23.476;2023-02-01T09:08:51;1.64;64.93
67942;SHT31;54731;42.600;23.476;2023-02-01T09:11:18;1.68;64.56
67942;SHT31;54731;42.600;23.476;2023-02-01T09:13:43;1.81;64.45
67942;SHT31;54731;42.600;23.476;2023-02-01T09:16:09;1.94;64.41
67942;SHT31;54731;42.600;23.476;2023-02-01T09:18:34;1.99;64.53
67942;SHT31;54731;42.600;23.476;2023-02-01T09:21:04;1.98;64.12
67942;SHT31;54731;42.600;23.476;2023-02-01T09:23:29;1.91;64.41
67942;SHT31;54731;42.600;23.476;2023-02-01T09:25:59;1.97;64.09
67942;SHT31;54731;42.600;23.476;2023-02-01T09:28:24;2.04;64.48
67942;SHT31;54731;42.600;23.476;2023-02-01T09:30:49;2.11;64.54
67942;SHT31;54731;42.600;23.476;2023-02-01T09:33:15;2.14;63.86
67942;SHT31;54731;42.600;23.476;2023-02-01T09:35:40;2.14;64.15
67942;SHT31;54731;42.600;23.476;2023-02-01T09:38:05;2.11;63.67
67942;SHT31;54731;42.600;23.476;2023-02-01T09:40:33;2.28;63.54
67942;SHT31;54731;42.600;23.476;2023-02-01T09:48:17;2.36;63.97
67942;SHT31;54731;42.600;23.476;2023-02-01T09:50:54;2.50;63.19
67942;SHT31;54731;42.600;23.476;2023-02-01T09:53:29;2.57;62.30
67942;SHT31;54731;42.600;23.476;2023-02-01T09:55:59;2.66;62.58
67942;SHT31;54731;42.600;23.476;2023-02-01T09:58:27;2.72;61.60
67942;SHT31;54731;42.600;23.476;2023-02-01T10:00:58;2.79;61.85
67942;SHT31;54731;42.600;23.476;2023-02-01T10:03:27;2.81;61.38
67942;SHT31;54731;42.600;23.476;2023-02-01T10:06:45;2.90;61.50
67942;SHT31;54731;42.600;23.476;2023-02-01T10:17:18;3.34;58.65
67942;SHT31;54731;42.600;23.476;2023-02-01T10:27:36;3.90;57.70
67942;SHT31;54731;42.600;23.476;2023-02-01T10:30:17;3.76;57.16
67942;SHT31;54731;42.600;23.476;2023-02-01T10:32:43;3.89;57.32
67942;SHT31;54731;42.600;23.476;2023-02-01T10:35:13;3.97;56.06
67942;SHT31;54731;42.600;23.476;2023-02-01T10:37:41;4.10;56.03
67942;SHT31;54731;42.600;23.476;2023-02-01T10:42:39;4.39;55.54
67942;SHT31;54731;42.600;23.476;2023-02-01T10:45:05;4.43;55.22
67942;SHT31;54731;42.600;23.476;2023-02-01T10:47:31;4.27;55.36
67942;SHT31;54731;42.600;23.476;2023-02-01T10:52:43;4.23;55.42
67942;SHT31;54731;42.600;23.476;2023-02-01T10:55:30;4.07;56.11
67942;SHT31;54731;42.600;23.476;2023-02-01T10:57:59;4.17;56.24
67942;SHT31;54731;42.600;23.476;2023-02-01T11:00:25;4.40;55.63
67942;SHT31;54731;42.600;23.476;2023-02-01T11:02:52;4.54;54.88
67942;SHT31;54731;42.600;23.476;2023-02-01T11:05:17;4.61;53.51
67942;SHT31;54731;42.600;23.476;2023-02-01T11:07:48;4.40;54.98
67942;SHT31;54731;42.600;23.476;2023-02-01T11:13:02;4.16;55.23
67942;SHT31;54731;42.600;23.476;2023-02-01T11:15:28;4.00;55.31
67942;SHT31;54731;42.600;23.476;2023-02-01T11:17:53;3.87;56.12
67942;SHT31;54731;42.600;23.476;2023-02-01T11:20:24;3.85;56.71
67942;SHT31;54731;42.600;23.476;2023-02-01T11:22:58;3.55;57.41
67942;SHT31;54731;42.600;23.476;2023-02-01T11:25:25;3.44;57.19
67942;SHT31;54731;42.600;23.476;2023-02-01T11:27:52;3.45;56.53
67942;SHT31;54731;42.600;23.476;2023-02-01T11:30:37;3.41;56.53
67942;SHT31;54731;42.600;23.476;2023-02-01T11:33:03;3.42;56.17
67942;SHT31;54731;42.600;23.476;2023-02-01T11:35:29;3.44;56.37
67942;SHT31;54731;42.600;23.476;2023-02-01T11:37:57;3.38;56.52
67942;SHT31;54731;42.600;23.476;2023-02-01T11:40:27;3.45;57.77
67942;SHT31;54731;42.600;23.476;2023-02-01T11:43:19;3.44;57.63
67942;SHT31;54731;42.600;23.476;2023-02-01T11:45:59;3.55;56.79
67942;SHT31;54731;42.600;23.476;2023-02-01T11:48:26;3.64;56.95
67942;SHT31;54731;42.600;23.476;2023-02-01T11:51:07;3.69;57.85
67942;SHT31;54731;42.600;23.476;2023-02-01T11:56:28;3.90;56.24
67942;SHT31;54731;42.600;23.476;2023-02-01T12:06:57;4.36;54.53
67942;SHT31;54731;42.600;23.476;2023-02-01T12:09:50;4.49;54.94
67942;SHT31;54731;42.600;23.476;2023-02-01T12:23:18;4.85;53.62
67942;SHT31;54731;42.600;23.476;2023-02-01T12:31:33;4.72;53.76
67942;SHT31;54731;42.600;23.476;2023-02-01T12:39:24;4.91;53.84
67942;SHT31;54731;42.600;23.476;2023-02-01T12:47:16;4.89;52.89
67942;SHT31;54731;42.600;23.476;2023-02-01T12:52:30;5.02;52.71
67942;SHT31;54731;42.600;23.476;2023-02-01T12:57:46;5.08;52.79
67942;SHT31;54731;42.600;23.476;2023-02-01T13:03:11;4.98;53.38
67942;SHT31;54731;42.600;23.476;2023-02-01T13:05:55;5.04;53.82
67942;SHT31;54731;42.600;23.476;2023-02-01T13:08:25;5.29;52.21
67942;SHT31;54731;42.600;23.476;2023-02-01T13:10:57;5.43;51.60
67942;SHT31;54731;42.600;23.476;2023-02-01T13:13:31;5.53;51.35
67942;SHT31;54731;42.600;23.476;2023-02-01T13:18:25;5.32;50.41
67942;SHT31;54731;42.600;23.476;2023-02-01T13:23:27;5.31;50.71
67942;SHT31;54731;42.600;23.476;2023-02-01T13:25:53;5.43;50.71
67942;SHT31;54731;42.600;23.476;2023-02-01T13:39:48;5.36;49.72
67942;SHT31;54731;42.600;23.476;2023-02-01T13:44:59;5.34;50.77
67942;SHT31;54731;42.600;23.476;2023-02-01T13:47:27;5.29;49.54
67942;SHT31;54731;42.600;23.476;2023-02-01T13:49:56;5.26;50.18
67942;SHT31;54731;42.600;23.476;2023-02-01T13:57:49;5.01;50.21
67942;SHT31;54731;42.600;23.476;2023-02-01T14:10:58;5.02;50.81
67942;SHT31;54731;42.600;23.476;2023-02-01T14:13:40;4.96;51.04
67942;SHT31;54731;42.600;23.476;2023-02-01T14:23:41;4.68;52.60
67942;SHT31;54731;42.600;23.476;2023-02-01T14:26:10;4.64;53.08
67942;SHT31;54731;42.600;23.476;2023-02-01T14:28:40;4.61;53.60
67942;SHT31;54731;42.600;23.476;2023-02-01T14:32:01;4.68;54.09
67942;SHT31;54731;42.600;23.476;2023-02-01T14:34:29;4.65;52.83
67942;SHT31;54731;42.600;23.476;2023-02-01T14:37:02;4.71;52.77
67942;SHT31;54731;42.600;23.476;2023-02-01T14:39:35;4.60;53.77
67942;SHT31;54731;42.600;23.476;2023-02-01T14:44:40;4.53;53.54
67942;SHT31;54731;42.600;23.476;2023-02-01T14:47:29;4.50;54.55
67942;SHT31;54731;42.600;23.476;2023-02-01T14:50:12;4.49;54.69
67942;SHT31;54731;42.600;23.476;2023-02-01T14:57:56;4.37;54.85
67942;SHT31;54731;42.600;23.476;2023-02-01T15:00:26;4.29;53.95
67942;SHT31;54731;42.600;23.476;2023-02-01T15:02:54;4.24;54.36
67942;SHT31;54731;42.600;23.476;2023-02-01T15:05:32;4.26;54.76
67942;SHT31;54731;42.600;23.476;2023-02-01T15:08:03;4.21;54.21
67942;SHT31;54731;42.600;23.476;2023-02-01T15:10:31;4.17;54.79
67942;SHT31;54731;42.600;23.476;2023-02-01T15:12:58;4.07;55.61
67942;SHT31;54731;42.600;23.476;2023-02-01T15:15:24;4.06;56.08
67942;SHT31;54731;42.600;23.476;2023-02-01T15:17:54;3.96;56.20
67942;SHT31;54731;42.600;23.476;2023-02-01T15:20:25;3.92;56.54
67942;SHT31;54731;42.600;23.476;2023-02-01T15:23:03;3.93;55.98
67942;SHT31;54731;42.600;23.476;2023-02-01T15:25:31;3.85;56.55
67942;SHT31;54731;42.600;23.476;2023-02-01T15:27:56;3.79;57.29
67942;SHT31;54731;42.600;23.476;2023-02-01T15:30:25;3.81;56.58
67942;SHT31;54731;42.600;23.476;2023-02-01T15:32:52;3.69;57.29
67942;SHT31;54731;42.600;23.476;2023-02-01T15:35:36;3.81;56.20
67942;SHT31;54731;42.600;23.476;2023-02-01T15:41:18;3.78;56.16
67942;SHT31;54731;42.600;23.476;2023-02-01T15:46:31;3.72;55.35
67942;SHT31;54731;42.600;23.476;2023-02-01T15:48:57;3.74;55.07
67942;SHT31;54731;42.600;23.476;2023-02-01T15:51:24;3.78;54.69
67942;SHT31;54731;42.600;23.476;2023-02-01T15:53:53;3.75;55.04
67942;SHT31;54731;42.600;23.476;2023-02-01T15:56:26;3.74;54.96
67942;SHT31;54731;42.600;23.476;2023-02-01T15:58:56;3.69;55.25
67942;SHT31;54731;42.600;23.476;2023-02-01T16:01:22;3.69;55.08
67942;SHT31;54731;42.600;23.476;2023-02-01T16:03:48;3.65;56.01
67942;SHT31;54731;42.600;23.476;2023-02-01T16:08:55;3.62;55.43
67942;SHT31;54731;42.600;23.476;2023-02-01T16:11:32;3.62;55.58
67942;SHT31;54731;42.600;23.476;2023-02-01T16:13:59;3.58;55.41
67942;SHT31;54731;42.600;23.476;2023-02-01T16:16:26;3.58;55.77
67942;SHT31;54731;42.600;23.476;2023-02-01T16:18:51;3.56;55.46
67942;SHT31;54731;42.600;23.476;2023-02-01T16:21:17;3.50;56.26
67942;SHT31;54731;42.600;23.476;2023-02-01T16:23:42;3.45;56.31
67942;SHT31;54731;42.600;23.476;2023-02-01T16:26:08;3.50;56.22
67942;SHT31;54731;42.600;23.476;2023-02-01T16:28:33;3.42;56.98
67942;SHT31;54731;42.600;23.476;2023-02-01T16:30:59;3.35;57.05
67942;SHT31;54731;42.600;23.476;2023-02-01T16:33:25;3.32;57.63
67942;SHT31;54731;42.600;23.476;2023-02-01T16:35:51;3.27;57.34
67942;SHT31;54731;42.600;23.476;2023-02-01T16:38:18;3.35;56.93
67942;SHT31;54731;42.600;23.476;2023-02-01T16:40:45;3.32;57.09
67942;SHT31;54731;42.600;23.476;2023-02-01T16:43:16;3.25;57.64
67942;SHT31;54731;42.600;23.476;2023-02-01T16:45:43;3.24;57.36
67942;SHT31;54731;42.600;23.476;2023-02-01T16:48:24;3.24;57.87
67942;SHT31;54731;42.600;23.476;2023-02-01T16:50:53;3.21;57.68
67942;SHT31;54731;42.600;23.476;2023-02-01T16:53:20;3.24;57.66
67942;SHT31;54731;42.600;23.476;2023-02-01T16:55:45;3.21;58.10
67942;SHT31;54731;42.600;23.476;2023-02-01T16:58:11;3.18;58.38
67942;SHT31;54731;42.600;23.476;2023-02-01T17:00:36;3.23;58.36
67942;SHT31;54731;42.600;23.476;2023-02-01T17:03:01;3.25;58.42
67942;SHT31;54731;42.600;23.476;2023-02-01T17:05:26;3.27;57.96
67942;SHT31;54731;42.600;23.476;2023-02-01T17:07:52;3.24;58.33
67942;SHT31;54731;42.600;23.476;2023-02-01T17:10:25;3.27;58.00
67942;SHT31;54731;42.600;23.476;2023-02-01T17:12:51;3.27;57.58
67942;SHT31;54731;42.600;23.476;2023-02-01T17:15:16;3.28;57.75
67942;SHT31;54731;42.600;23.476;2023-02-01T17:17:42;3.24;57.80
67942;SHT31;54731;42.600;23.476;2023-02-01T17:20:16;3.25;57.94
67942;SHT31;54731;42.600;23.476;2023-02-01T17:22:42;3.30;56.88
67942;SHT31;54731;42.600;23.476;2023-02-01T17:25:14;3.24;57.70
67942;SHT31;54731;42.600;23.476;2023-02-01T17:27:40;3.23;57.58
67942;SHT31;54731;42.600;23.476;2023-02-01T17:30:06;3.21;57.53
67942;SHT31;54731;42.600;23.476;2023-02-01T17:32:32;3.17;57.86
67942;SHT31;54731;42.600;23.476;2023-02-01T17:34:57;3.14;58.13
67942;SHT31;54731;42.600;23.476;2023-02-01T17:37:33;3.15;57.71
67942;SHT31;54731;42.600;23.476;2023-02-01T17:39:59;3.25;56.75
67942;SHT31;54731;42.600;23.476;2023-02-01T17:42:26;3.27;56.61
67942;SHT31;54731;42.600;23.476;2023-02-01T17:44:55;3.24;57.04
67942;SHT31;54731;42.600;23.476;2023-02-01T17:47:21;3.21;56.62
67942;SHT31;54731;42.600;23.476;2023-02-01T17:49:47;3.35;55.58
67942;SHT31;54731;42.600;23.476;2023-02-01T17:52:16;3.36;55.75
67942;SHT31;54731;42.600;23.476;2023-02-01T17:54:42;3.45;54.12
67942;SHT31;54731;42.600;23.476;2023-02-01T17:57:13;3.51;54.10
67942;SHT31;54731;42.600;23.476;2023-02-01T17:59:38;3.48;54.52
67942;SHT31;54731;42.600;23.476;2023-02-01T18:02:20;3.48;54.31
67942;SHT31;54731;42.600;23.476;2023-02-01T18:04:45;3.54;54.17
67942;SHT31;54731;42.600;23.476;2023-02-01T18:07:10;3.55;54.12
67942;SHT31;54731;42.600;23.476;2023-02-01T18:09:36;3.55;53.50
67942;SHT31;54731;42.600;23.476;2023-02-01T18:12:03;3.62;53.28
67942;SHT31;54731;42.600;23.476;2023-02-01T18:14:29;3.65;52.83
67942;SHT31;54731;42.600;23.476;2023-02-01T18:16:54;3.64;52.95
67942;SHT31;54731;42.600;23.476;2023-02-01T18:19:19;3.65;52.61
67942;SHT31;54731;42.600;23.476;2023-02-01T18:21:45;3.65;53.01
67942;SHT31;54731;42.600;23.476;2023-02-01T18:24:14;3.62;53.20